createdAt,value
2023-04-17T00:01:56.664Z,91.60
2023-04-17T00:04:24.027Z,91.60
2023-04-17T00:06:53.915Z,91.60
2023-04-17T00:09:20.959Z,91.60
2023-04-17T00:11:48.188Z,91.60
2023-04-17T00:14:15.285Z,91.60
2023-04-17T00:16:42.311Z,91.60
2023-04-17T00:19:09.443Z,91.60
2023-04-17T00:21:36.442Z,91.70
2023-04-17T00:24:03.453Z,91.70
2023-04-17T00:26:32.361Z,91.70
2023-04-17T00:28:59.317Z,91.70
2023-04-17T00:31:26.283Z,91.70
2023-04-17T00:33:53.450Z,91.70
2023-04-17T00:36:20.626Z,91.60
2023-04-17T00:38:47.764Z,91.60
2023-04-17T00:41:14.744Z,91.70
2023-04-17T00:43:41.842Z,91.70
2023-04-17T00:46:10.062Z,91.70
2023-04-17T00:48:37.984Z,91.80
2023-04-17T00:51:05.050Z,91.80
2023-04-17T00:53:32.583Z,91.70
2023-04-17T00:56:03.528Z,91.70
2023-04-17T00:58:31.049Z,91.80
2023-04-17T01:01:01.344Z,91.80
2023-04-17T01:03:32.487Z,91.80
2023-04-17T01:06:00.001Z,91.80
2023-04-17T01:08:29.561Z,91.90
2023-04-17T01:10:56.634Z,91.90
2023-04-17T01:13:23.628Z,91.90
2023-04-17T01:15:51.987Z,92.00
2023-04-17T01:18:19.068Z,92.00
2023-04-17T01:20:46.045Z,92.00
2023-04-17T01:23:13.637Z,92.00
2023-04-17T01:25:40.963Z,92.00
2023-04-17T01:28:08.902Z,92.00
2023-04-17T01:30:37.224Z,92.00
2023-04-17T01:33:07.408Z,92.00
2023-04-17T01:35:34.370Z,92.00
2023-04-17T01:38:01.389Z,92.10
2023-04-17T01:40:30.979Z,92.10
2023-04-17T01:42:58.351Z,92.10
2023-04-17T01:45:25.381Z,92.10
2023-04-17T01:47:52.537Z,92.10
2023-04-17T01:50:19.786Z,92.10
2023-04-17T01:52:47.444Z,92.20
2023-04-17T01:55:17.082Z,92.20
2023-04-17T01:57:44.029Z,92.20
2023-04-17T02:00:11.313Z,92.20
2023-04-17T02:02:45.926Z,92.20
2023-04-17T02:05:16.152Z,92.20
2023-04-17T02:07:44.190Z,92.20
2023-04-17T02:10:11.235Z,92.10
2023-04-17T02:12:38.299Z,92.10
2023-04-17T02:15:05.907Z,92.10
2023-04-17T02:17:33.363Z,92.10
2023-04-17T02:20:00.534Z,92.20
2023-04-17T02:22:27.566Z,92.20
2023-04-17T02:24:54.433Z,92.30
2023-04-17T02:27:22.173Z,92.30
2023-04-17T02:29:49.042Z,92.30
2023-04-17T02:32:17.325Z,92.30
2023-04-17T02:34:45.219Z,92.30
2023-04-17T02:37:17.288Z,92.30
2023-04-17T02:39:44.197Z,92.40
2023-04-17T02:42:14.974Z,92.40
2023-04-17T02:44:41.937Z,92.40
2023-04-17T02:47:09.104Z,92.40
2023-04-17T02:49:36.113Z,92.40
2023-04-17T02:52:03.087Z,92.40
2023-04-17T02:54:30.310Z,92.40
2023-04-17T02:56:58.670Z,92.40
2023-04-17T02:59:29.446Z,92.40
2023-04-17T03:01:59.860Z,92.50
2023-04-17T03:04:30.162Z,92.50
2023-04-17T03:06:57.134Z,92.50
2023-04-17T03:09:25.000Z,92.50
2023-04-17T03:11:52.695Z,92.50
2023-04-17T03:14:19.586Z,92.50
2023-04-17T03:16:46.532Z,92.50
2023-04-17T03:19:13.727Z,92.60
2023-04-17T03:21:41.062Z,92.60
2023-04-17T03:24:08.127Z,92.60
2023-04-17T03:26:35.438Z,92.70
2023-04-17T03:29:07.588Z,92.70
2023-04-17T03:31:34.488Z,92.80
2023-04-17T03:34:01.477Z,92.90
2023-04-17T03:36:31.118Z,92.90
2023-04-17T03:39:00.854Z,92.90
2023-04-17T03:41:31.309Z,92.90
2023-04-17T03:43:58.420Z,92.90
2023-04-17T03:46:25.590Z,92.90
2023-04-17T03:48:53.503Z,92.90
2023-04-17T03:51:20.470Z,92.90
2023-04-17T03:53:48.785Z,92.90
2023-04-17T03:56:15.845Z,92.90
2023-04-17T03:58:45.241Z,92.90
2023-04-17T04:01:15.620Z,92.90
2023-04-17T04:04:00.543Z,93.00
2023-04-17T04:06:31.409Z,93.00
2023-04-17T04:09:02.100Z,93.00
2023-04-17T04:11:32.382Z,93.00
2023-04-17T04:13:59.265Z,93.00
2023-04-17T04:16:28.999Z,93.00
2023-04-17T04:19:05.028Z,93.00
2023-04-17T04:21:31.974Z,93.10
2023-04-17T04:23:59.905Z,93.10
2023-04-17T04:26:28.428Z,93.20
2023-04-17T04:28:56.775Z,93.20
2023-04-17T04:31:32.551Z,93.20
2023-04-17T04:34:02.362Z,93.20
2023-04-17T04:36:30.170Z,93.20
2023-04-17T04:39:20.980Z,93.30
2023-04-17T04:41:50.650Z,93.30
2023-04-17T04:44:20.126Z,93.30
2023-04-17T04:46:49.617Z,93.40
2023-04-17T04:49:16.732Z,93.40
2023-04-17T04:51:46.182Z,93.30
2023-04-17T04:54:13.670Z,93.40
2023-04-17T04:56:47.864Z,93.40
2023-04-17T04:59:16.126Z,93.40
2023-04-17T05:01:49.633Z,93.50
2023-04-17T05:04:19.961Z,93.40
2023-04-17T05:06:49.424Z,93.40
2023-04-17T05:09:17.300Z,93.40
2023-04-17T05:11:45.354Z,93.40
2023-04-17T05:14:12.236Z,93.70
2023-04-17T05:16:40.500Z,93.40
2023-04-17T05:19:09.308Z,93.40
2023-04-17T05:21:52.334Z,93.30
2023-04-17T05:24:20.936Z,93.30
2023-04-17T05:26:49.519Z,93.30
2023-04-17T05:29:16.457Z,93.40
2023-04-17T05:31:43.552Z,93.30
2023-04-17T05:34:23.750Z,93.30
2023-04-17T05:36:50.822Z,93.40
2023-04-17T05:39:18.277Z,93.40
2023-04-17T05:41:45.323Z,93.30
2023-04-17T05:44:12.316Z,93.30
2023-04-17T05:46:39.239Z,93.30
2023-04-17T05:49:06.419Z,93.30
2023-04-17T05:51:33.628Z,93.30
2023-04-17T05:54:03.153Z,93.30
2023-04-17T05:56:31.438Z,93.40
2023-04-17T05:58:59.535Z,93.40
2023-04-17T06:01:29.859Z,93.40
2023-04-17T06:04:01.518Z,93.30
2023-04-17T06:06:29.077Z,93.30
2023-04-17T06:08:58.365Z,93.30
2023-04-17T06:11:25.383Z,93.30
2023-04-17T06:13:53.265Z,93.30
2023-04-17T06:16:22.015Z,93.30
2023-04-17T06:18:49.383Z,93.30
2023-04-17T06:21:16.313Z,93.30
2023-04-17T06:23:45.612Z,93.30
2023-04-17T06:26:12.718Z,93.30
2023-04-17T06:28:40.486Z,93.30
2023-04-17T06:31:07.805Z,93.30
2023-04-17T06:33:34.862Z,93.30
2023-04-17T06:36:02.806Z,93.30
2023-04-17T06:38:48.392Z,93.30
2023-04-17T06:41:17.431Z,93.30
2023-04-17T06:43:44.541Z,93.30
2023-04-17T06:46:17.432Z,93.30
2023-04-17T06:48:44.406Z,93.30
2023-04-17T06:51:11.356Z,93.30
2023-04-17T06:53:38.441Z,93.30
2023-04-17T06:56:05.853Z,93.30
2023-04-17T06:58:33.212Z,93.30
2023-04-17T07:01:00.336Z,93.30
2023-04-17T07:03:29.405Z,93.20
2023-04-17T07:05:56.540Z,93.20
2023-04-17T07:08:23.604Z,93.20
2023-04-17T07:10:50.620Z,93.20
2023-04-17T07:13:17.536Z,93.40
2023-04-17T07:15:44.622Z,93.10
2023-04-17T07:18:11.715Z,93.00
2023-04-17T07:20:38.791Z,93.00
2023-04-17T07:23:05.811Z,93.00
2023-04-17T07:25:32.910Z,93.00
2023-04-17T07:27:59.910Z,92.90
2023-04-17T07:30:29.948Z,92.90
2023-04-17T07:32:57.003Z,92.80
2023-04-17T07:35:26.880Z,92.80
2023-04-17T07:37:53.902Z,92.80
2023-04-17T07:40:20.919Z,92.70
2023-04-17T07:42:48.021Z,92.60
2023-04-17T07:45:18.074Z,92.60
2023-04-17T07:47:45.040Z,92.60
2023-04-17T07:50:12.247Z,92.50
2023-04-17T07:52:39.369Z,92.50
2023-04-17T07:55:07.288Z,92.50
2023-04-17T07:57:34.289Z,92.50
2023-04-17T08:00:02.053Z,92.40
2023-04-17T08:02:40.672Z,92.50
2023-04-17T08:05:08.468Z,92.50
2023-04-17T08:07:36.216Z,92.40
2023-04-17T08:10:04.916Z,92.50
2023-04-17T08:12:32.023Z,92.50
2023-04-17T08:14:59.473Z,92.50
2023-04-17T08:17:30.194Z,92.50
2023-04-17T08:19:57.688Z,92.50
2023-04-17T08:22:26.292Z,92.50
2023-04-17T08:24:57.918Z,92.50
2023-04-17T08:27:25.998Z,92.60
2023-04-17T08:29:55.442Z,92.50
2023-04-17T08:32:22.498Z,92.50
2023-04-17T08:34:49.629Z,92.40
2023-04-17T08:37:16.587Z,92.30
2023-04-17T08:39:43.824Z,92.20
2023-04-17T08:42:14.768Z,92.00
2023-04-17T08:44:45.035Z,91.80
2023-04-17T08:47:16.451Z,91.70
2023-04-17T08:49:44.086Z,91.80
2023-04-17T08:52:11.615Z,91.40
2023-04-17T08:54:39.623Z,91.30
2023-04-17T08:57:07.014Z,91.00
2023-04-17T08:59:34.302Z,90.90
2023-04-17T09:02:06.963Z,90.90
2023-04-17T09:04:42.780Z,90.60
2023-04-17T09:07:16.775Z,90.60
2023-04-17T09:10:06.973Z,90.50
2023-04-17T09:12:34.435Z,90.50
2023-04-17T09:15:15.687Z,90.50
2023-04-17T09:17:42.863Z,90.40
2023-04-17T09:20:12.229Z,90.40
2023-04-17T09:22:41.004Z,90.30
2023-04-17T09:25:23.299Z,90.10
2023-04-17T09:27:50.407Z,90.00
2023-04-17T09:30:17.524Z,89.90
2023-04-17T09:32:47.575Z,89.50
2023-04-17T09:35:25.754Z,89.50
2023-04-17T09:37:59.287Z,89.20
2023-04-17T09:40:28.552Z,89.20
2023-04-17T09:43:08.996Z,89.00
2023-04-17T09:45:39.803Z,88.80
2023-04-17T09:48:09.349Z,88.60
2023-04-17T09:50:38.686Z,88.30
2023-04-17T09:53:07.757Z,88.20
2023-04-17T09:55:36.976Z,87.90
2023-04-17T09:58:06.408Z,87.40
2023-04-17T10:00:33.624Z,87.30
2023-04-17T10:03:00.953Z,87.10
2023-04-17T10:05:31.473Z,87.00
2023-04-17T10:08:01.557Z,86.70
2023-04-17T10:10:31.360Z,86.40
2023-04-17T10:13:00.632Z,86.20
2023-04-17T10:15:28.546Z,85.90
2023-04-17T10:17:58.886Z,85.80
2023-04-17T10:20:28.508Z,85.40
2023-04-17T10:22:56.360Z,85.10
2023-04-17T10:25:25.335Z,84.50
2023-04-17T10:27:53.563Z,83.80
2023-04-17T10:30:22.888Z,83.50
2023-04-17T10:33:15.738Z,82.40
2023-04-17T10:35:42.899Z,81.60
2023-04-17T10:38:11.450Z,81.50
2023-04-17T10:40:39.308Z,81.40
2023-04-17T10:43:14.973Z,81.40
2023-04-17T10:46:17.107Z,81.20
2023-04-17T10:49:12.287Z,80.90
2023-04-17T10:51:47.272Z,80.70
2023-04-17T10:54:17.217Z,79.60
2023-04-17T10:56:48.651Z,79.00
2023-04-17T10:59:17.774Z,78.80
2023-04-17T11:01:47.952Z,79.50
2023-04-17T11:04:46.547Z,78.80
2023-04-17T11:07:21.470Z,78.20
2023-04-17T11:10:00.748Z,77.70
2023-04-17T11:12:31.998Z,77.30
2023-04-17T11:15:04.177Z,76.40
2023-04-17T11:17:54.456Z,75.70
2023-04-17T11:20:24.847Z,75.50
2023-04-17T11:22:53.483Z,75.50
2023-04-17T11:25:27.557Z,75.00
2023-04-17T11:28:04.768Z,74.60
2023-04-17T11:30:45.560Z,73.80
2023-04-17T11:33:14.885Z,73.00
2023-04-17T11:36:26.433Z,72.40
2023-04-17T11:38:55.360Z,71.50
2023-04-17T11:41:22.574Z,71.40
2023-04-17T11:43:52.059Z,71.10
2023-04-17T11:46:19.588Z,70.50
2023-04-17T11:48:50.207Z,70.10
2023-04-17T11:51:19.032Z,70.00
2023-04-17T11:53:50.274Z,70.10
2023-04-17T11:56:19.015Z,69.00
2023-04-17T11:58:50.549Z,68.80
2023-04-17T12:01:18.863Z,68.20
2023-04-17T12:03:47.885Z,66.70
2023-04-17T12:06:18.440Z,66.30
2023-04-17T12:08:53.294Z,66.10
2023-04-17T12:11:26.252Z,66.30
2023-04-17T12:13:54.619Z,67.00
2023-04-17T12:16:24.733Z,67.20
2023-04-17T12:18:52.514Z,67.60
2023-04-17T12:21:24.122Z,68.00
2023-04-17T12:23:52.057Z,68.10
2023-04-17T12:26:19.263Z,68.00
2023-04-17T12:28:46.427Z,67.90
2023-04-17T12:31:13.666Z,67.30
2023-04-17T12:33:40.558Z,67.40
2023-04-17T12:36:08.129Z,67.60
2023-04-17T12:38:38.077Z,66.80
2023-04-17T12:41:58.258Z,66.60
2023-04-17T12:44:25.635Z,66.40
2023-04-17T12:47:01.436Z,66.40
2023-04-17T12:49:54.285Z,66.20
2023-04-17T12:56:36.375Z,65.70
2023-04-17T12:59:42.847Z,65.60
2023-04-17T13:02:19.803Z,65.10
2023-04-17T13:04:53.156Z,64.80
2023-04-17T13:10:07.509Z,64.70
2023-04-17T13:12:41.380Z,64.00
2023-04-17T13:15:09.169Z,63.90
2023-04-17T13:17:36.447Z,63.40
2023-04-17T13:20:03.659Z,62.80
2023-04-17T13:22:30.604Z,62.70
2023-04-17T13:24:59.739Z,62.30
2023-04-17T13:27:27.065Z,62.30
2023-04-17T13:29:56.755Z,62.10
2023-04-17T13:32:23.984Z,61.90
2023-04-17T13:34:51.159Z,61.70
2023-04-17T13:37:20.670Z,61.70
2023-04-17T13:39:50.007Z,61.60
2023-04-17T13:42:18.885Z,61.60
2023-04-17T13:44:45.912Z,61.40
2023-04-17T13:47:13.542Z,61.50
2023-04-17T13:49:41.218Z,61.60
2023-04-17T13:52:11.236Z,61.80
2023-04-17T13:54:38.285Z,61.90
2023-04-17T13:57:06.583Z,62.00
2023-04-17T13:59:36.472Z,61.40
2023-04-17T14:02:04.049Z,60.70
2023-04-17T14:04:34.129Z,61.00
2023-04-17T14:07:01.238Z,61.00
2023-04-17T14:09:31.462Z,61.10
2023-04-17T14:12:02.375Z,60.40
2023-04-17T14:14:29.386Z,60.10
2023-04-17T14:16:56.927Z,59.60
2023-04-17T14:19:26.474Z,59.80
2023-04-17T14:21:55.055Z,60.10
2023-04-17T14:24:25.002Z,60.40
2023-04-17T14:27:01.959Z,60.70
2023-04-17T14:30:47.610Z,60.90
2023-04-17T14:33:35.121Z,60.80
2023-04-17T14:36:03.924Z,61.30
2023-04-17T14:38:32.505Z,60.50
2023-04-17T14:41:04.929Z,58.90
2023-04-17T14:43:35.090Z,58.80
2023-04-17T14:46:02.454Z,58.20
2023-04-17T14:48:32.696Z,56.50
2023-04-17T14:51:12.527Z,54.90
2023-04-17T14:53:42.718Z,54.50
2023-04-17T14:56:09.925Z,54.20
2023-04-17T14:58:38.300Z,53.10
2023-04-17T15:01:05.761Z,53.40
2023-04-17T15:03:33.086Z,54.60
2023-04-17T15:06:02.569Z,56.00
2023-04-17T15:08:31.382Z,57.20
2023-04-17T15:10:58.988Z,58.30
2023-04-17T15:13:31.495Z,59.10
2023-04-17T15:15:58.642Z,59.40
2023-04-17T15:18:29.008Z,59.70
2023-04-17T15:20:56.191Z,60.00
2023-04-17T15:23:25.412Z,60.00
2023-04-17T15:25:54.329Z,60.00
2023-04-17T15:28:24.049Z,60.20
2023-04-17T15:30:50.945Z,60.50
2023-04-17T15:33:18.041Z,60.00
2023-04-17T15:35:45.229Z,58.10
2023-04-17T15:38:12.436Z,55.80
2023-04-17T15:40:39.442Z,54.00
2023-04-17T15:43:07.821Z,52.40
2023-04-17T15:45:41.143Z,51.50
2023-04-17T15:48:15.639Z,50.80
2023-04-17T15:50:42.582Z,50.00
2023-04-17T15:53:10.006Z,50.20
2023-04-17T15:55:38.615Z,52.00
2023-04-17T15:58:05.882Z,53.80
2023-04-17T16:00:34.117Z,55.20
2023-04-17T16:03:01.326Z,56.30
2023-04-17T16:05:30.244Z,56.70
2023-04-17T16:07:57.692Z,57.80
2023-04-17T16:10:24.833Z,58.70
2023-04-17T16:12:51.833Z,59.50
2023-04-17T16:15:19.160Z,60.10
2023-04-17T16:17:48.778Z,60.60
2023-04-17T16:20:16.762Z,60.80
2023-04-17T16:22:44.014Z,61.10
2023-04-17T16:25:12.541Z,61.30
2023-04-17T16:27:40.475Z,61.50
2023-04-17T16:30:08.568Z,61.60
2023-04-17T16:32:35.762Z,61.80
2023-04-17T16:35:02.792Z,61.90
2023-04-17T16:37:29.977Z,62.10
2023-04-17T16:39:57.030Z,62.10
2023-04-17T16:42:26.340Z,61.20
2023-04-17T16:44:53.490Z,59.40
2023-04-17T16:47:33.270Z,58.20
2023-04-17T16:50:00.722Z,56.70
2023-04-17T16:52:30.821Z,56.50
2023-04-17T16:54:59.083Z,57.50
2023-04-17T16:57:26.055Z,58.50
2023-04-17T16:59:52.980Z,59.40
2023-04-17T17:02:20.073Z,60.50
2023-04-17T17:04:47.267Z,60.90
2023-04-17T17:07:17.105Z,60.10
2023-04-17T17:09:44.032Z,59.00
2023-04-17T17:12:11.301Z,57.90
2023-04-17T17:14:38.308Z,57.30
2023-04-17T17:17:05.360Z,57.20
2023-04-17T17:19:32.614Z,57.10
2023-04-17T17:21:59.660Z,57.10
2023-04-17T17:24:26.778Z,57.50
2023-04-17T17:26:53.793Z,58.40
2023-04-17T17:29:20.747Z,59.40
2023-04-17T17:31:47.892Z,60.30
2023-04-17T17:34:26.219Z,61.80
2023-04-17T17:36:53.987Z,61.70
2023-04-17T17:39:22.271Z,62.30
2023-04-17T17:41:49.743Z,62.60
2023-04-17T17:44:16.942Z,62.80
2023-04-17T17:46:44.321Z,62.90
2023-04-17T17:49:11.429Z,62.90
2023-04-17T17:51:38.630Z,62.90
2023-04-17T17:54:05.811Z,63.10
2023-04-17T17:56:33.034Z,63.20
2023-04-17T17:59:00.346Z,63.40
2023-04-17T18:01:30.572Z,63.50
2023-04-17T18:03:58.158Z,63.60
2023-04-17T18:06:27.904Z,63.60
2023-04-17T18:08:54.999Z,63.70
2023-04-17T18:11:23.036Z,63.70
2023-04-17T18:13:52.882Z,63.90
2023-04-17T18:16:20.650Z,64.00
2023-04-17T18:18:51.053Z,64.00
2023-04-17T18:21:29.966Z,64.10
2023-04-17T18:23:57.844Z,64.30
2023-04-17T18:26:24.986Z,64.40
2023-04-17T18:28:52.179Z,64.50
2023-04-17T18:31:21.906Z,64.50
2023-04-17T18:33:51.637Z,64.50
2023-04-17T18:36:18.927Z,64.70
2023-04-17T18:38:46.100Z,64.70
2023-04-17T18:41:16.053Z,64.80
2023-04-17T18:43:43.229Z,64.90
2023-04-17T18:50:39.574Z,65.20
2023-04-17T18:56:06.837Z,65.70
2023-04-17T18:58:40.586Z,65.80
2023-04-17T19:01:10.402Z,65.90
2023-04-17T19:03:38.727Z,66.00
2023-04-17T19:06:06.748Z,66.20
2023-04-17T19:08:42.782Z,66.30
2023-04-17T19:12:15.622Z,66.30
2023-04-17T19:14:42.652Z,66.40
2023-04-17T19:17:09.635Z,66.70
2023-04-17T19:19:40.076Z,66.90
2023-04-17T19:22:07.160Z,66.90
2023-04-17T19:24:37.407Z,67.00
2023-04-17T19:27:04.634Z,67.10
2023-04-17T19:29:31.902Z,67.20
2023-04-17T19:32:15.376Z,67.40
2023-04-17T19:35:10.625Z,67.60
2023-04-17T19:37:40.157Z,67.70
2023-04-17T19:40:21.219Z,67.90
2023-04-17T19:42:51.698Z,68.00
2023-04-17T19:45:20.660Z,68.10
2023-04-17T19:48:01.105Z,68.10
2023-04-17T19:55:33.726Z,68.50
2023-04-17T20:14:33.122Z,69.40
2023-04-17T20:24:46.790Z,69.80
2023-04-17T20:27:29.072Z,70.00
2023-04-17T20:30:01.299Z,70.10
2023-04-17T20:32:48.784Z,70.40
2023-04-17T20:35:17.569Z,70.60
2023-04-17T20:37:46.722Z,70.60
2023-04-17T20:40:37.217Z,70.50
2023-04-17T20:43:07.084Z,70.60
2023-04-17T20:45:34.448Z,70.70
2023-04-17T20:48:02.156Z,70.80
2023-04-17T20:50:30.917Z,71.40
2023-04-17T20:53:01.292Z,70.70
2023-04-17T20:56:01.871Z,71.00
2023-04-17T20:58:32.210Z,71.10
2023-04-17T21:01:01.635Z,71.10
2023-04-17T21:03:33.180Z,71.30
2023-04-17T21:06:00.725Z,71.40
2023-04-17T21:08:30.300Z,71.50
2023-04-17T21:13:42.873Z,71.80
2023-04-17T21:18:56.899Z,71.90
2023-04-17T21:21:23.929Z,72.00
2023-04-17T21:23:51.758Z,72.10
2023-04-17T21:26:18.843Z,72.10
2023-04-17T21:28:45.793Z,72.40
2023-04-17T21:31:15.902Z,72.80
2023-04-17T21:33:42.956Z,72.70
2023-04-17T21:36:09.916Z,72.70
2023-04-17T21:38:36.994Z,72.90
2023-04-17T21:41:06.726Z,73.00
2023-04-17T21:43:33.713Z,73.10
2023-04-17T21:46:01.080Z,73.30
2023-04-17T21:48:28.015Z,73.30
2023-04-17T21:51:03.510Z,73.60
2023-04-17T21:53:31.750Z,73.80
2023-04-17T21:55:58.702Z,74.00
2023-04-17T21:58:25.954Z,74.20
2023-04-17T22:00:53.910Z,74.30
2023-04-17T22:03:22.151Z,74.40
2023-04-17T22:05:54.235Z,74.70
2023-04-17T22:08:21.305Z,74.70
2023-04-17T22:10:48.260Z,75.10
2023-04-17T22:13:16.106Z,75.00
2023-04-17T22:15:44.306Z,75.10
2023-04-17T22:18:11.190Z,75.40
2023-04-17T22:20:38.174Z,75.50
2023-04-17T22:23:05.204Z,75.80
2023-04-17T22:25:32.136Z,75.90
2023-04-17T22:27:59.021Z,76.10
2023-04-17T22:30:25.994Z,76.10
2023-04-17T22:32:52.986Z,76.20
2023-04-17T22:35:20.102Z,76.40
2023-04-17T22:37:47.149Z,76.70
2023-04-17T22:40:14.354Z,76.70
2023-04-17T22:42:41.830Z,76.70
2023-04-17T22:45:09.194Z,76.90
2023-04-17T22:47:36.312Z,77.00
2023-04-17T22:50:03.552Z,77.20
2023-04-17T22:52:30.553Z,77.30
2023-04-17T22:54:57.528Z,77.40
2023-04-17T22:57:24.565Z,77.50
2023-04-17T22:59:51.492Z,77.60
2023-04-17T23:02:18.443Z,77.90
2023-04-17T23:04:45.538Z,78.00
2023-04-17T23:07:12.454Z,78.20
2023-04-17T23:09:39.333Z,78.20
2023-04-17T23:12:07.235Z,78.10
2023-04-17T23:14:34.764Z,78.10
2023-04-17T23:17:01.737Z,78.10
2023-04-17T23:19:28.687Z,78.00
2023-04-17T23:21:55.978Z,78.10
2023-04-17T23:24:22.938Z,78.10
2023-04-17T23:26:49.898Z,78.20
2023-04-17T23:29:16.977Z,78.20
2023-04-17T23:31:45.612Z,78.40
2023-04-17T23:34:12.810Z,78.60
2023-04-17T23:36:40.936Z,78.80
2023-04-17T23:39:07.930Z,78.70
2023-04-17T23:41:35.391Z,78.80
2023-04-17T23:44:03.973Z,78.60
2023-04-17T23:46:31.032Z,78.40
2023-04-17T23:48:57.995Z,78.20
2023-04-17T23:51:25.017Z,78.20
2023-04-17T23:53:51.989Z,77.80
2023-04-17T23:56:22.122Z,77.60
2023-04-17T23:58:49.122Z,77.40
